Portada
METAR-TAF:

METAR-TAF

Aeroports :

Žilina, Eslovàquia

latitud: 49-14N, longitud: 018-36-49E, altitud: 312 m

Observació

L'informe es va fer fa 26 minuts, a les 00:00 UTC
Vent 3 kt del Est/Sud-Est
Temperatura 17°C
Humitat 94%
Pressió 1022 hPa
Visibilitat 10 km o més
sense núvols per sota de 1500 mi sense presència de cumulonimbus.

METAR: LZZI 070000Z 11003KT CAVOK 17/16 Q1022

Hora: 02:26 (00:26 UTC)

Pronòstic

L'informe es va fer fa 1 hora i 26 minuts, a les 23:00 UTC
Pronòstic vàlid del 07 a les 00 UTC al 07 a les 09 UTC
Vent 2 kt amb direcció variable
Visibilitat: 7000 m
Temporalment
l' 07 a les 00 UTC al 07 a les 05 UTC
Visibilitat: 3000 m
Núvols disperses a una alçada de 300 ft
boira en bancs
Evolucionant progressivament
l' 07 a les 05 UTC al 07 a les 07 UTC
Vent 5 kt del Nord-Est
Visibilitat 10 km o més
sense núvols per sota de 1500 mi sense presència de cumulonimbus.

TAF: LZZI 062300Z 0700/0709 VRB02KT 7000 NSC TEMPO 0700/0705 3000 BCFG SCT003 BECMG 0705/0707 05005KT CAVOK

Observacions i pronòstics meteorològics de més de 4000 aeroports (METAR i TAF).

Les estacions disponibles són els punts grocs i vermells al mapa.

Posi el ratolí al punt desitjat per veure el nom de l'estació.

Feu clic per veure les observacions i els pronòstics meteorològics.

Per canviar el mapa: feu clic els botons verds amb una creu de color negre per apropar; al botó verd amb un guió per allunyar la imatge; o en les fletxes verdes per a mapes adjacents.


METAR-TAF: